Time;durP1;ratioP1;P1;durP2;ratioP2;P2;SDS_P1;SDS_P2;PMS_P1;PMS_P2;Temp;Humidity;BMP_temperature;BMP_pressure;BME280_temperature;BME280_humidity;BME280_pressure;Samples;Min_cycle;Max_cycle;Signal;HPM_P1;HPM_P2
2022/11/05 00:10:07;;;;;;;22.87;15.47;;;;;;;14.93;86.95;94234.94;5012769;28;20293;-78
2022/11/05 00:18:20;;;;;;;24.17;16.37;;;;;;;14.91;86.88;94254.91;4952156;29;20201;-75
2022/11/05 00:25:12;;;;;;;25.23;16.20;;;;;;;14.91;87.18;94254.91;4953675;29;20194;-78
2022/11/05 00:26:39;;;;;;;19.83;15.37;;;;;;;14.88;87.17;94232.88;4953502;29;20708;-81
2022/11/05 00:29:05;;;;;;;18.93;15.20;;;;;;;14.88;87.32;94227.72;4953801;29;20222;-81
2022/11/05 00:31:32;;;;;;;19.40;15.33;;;;;;;14.89;87.46;94226.75;4952524;29;20241;-83
2022/11/05 00:34:02;;;;;;;22.53;15.77;;;;;;;14.89;87.35;94219.03;4957876;29;20221;-82
2022/11/05 00:36:36;;;;;;;22.90;15.43;;;;;;;14.90;87.31;94237.88;4962011;29;20201;-76
2022/11/05 00:39:05;;;;;;;22.40;15.60;;;;;;;14.88;87.46;94235.44;4955079;29;20282;-77
2022/11/05 00:41:32;;;;;;;19.77;15.33;;;;;;;14.91;87.63;94231.75;4951969;29;20191;-77
2022/11/05 00:49:39;;;;;;;23.90;15.90;;;;;;;14.86;87.80;94216.81;4899588;29;20193;-77
2022/11/05 00:54:48;;;;;;;20.83;14.77;;;;;;;14.87;87.83;94215.03;4934805;29;20223;-80
2022/11/05 00:57:14;;;;;;;21.53;16.43;;;;;;;14.80;87.88;94200.28;4937627;29;20251;-82
2022/11/05 00:59:41;;;;;;;20.50;16.03;;;;;;;14.85;87.76;94207.47;4936932;29;20218;-81
2022/11/05 01:02:08;;;;;;;23.40;15.97;;;;;;;14.85;87.58;94207.47;4942056;29;20246;-82
2022/11/05 01:04:38;;;;;;;23.00;15.70;;;;;;;14.84;87.74;94208.47;4956688;29;20641;-76
2022/11/05 01:07:06;;;;;;;22.63;16.10;;;;;;;14.77;87.71;94197.28;4960512;29;20229;-83
2022/11/05 01:09:34;;;;;;;20.13;15.60;;;;;;;14.83;87.55;94199.16;4960985;29;20250;-83
2022/11/05 01:12:01;;;;;;;22.17;15.87;;;;;;;14.83;87.66;94196.56;4958142;29;20257;-80
2022/11/05 01:14:28;;;;;;;25.90;17.13;;;;;;;14.82;87.95;94207.84;4954645;29;20257;-83
2022/11/05 01:16:55;;;;;;;19.30;14.70;;;;;;;14.82;87.76;94202.69;4965067;28;20213;-85
2022/11/05 01:19:22;;;;;;;20.37;16.27;;;;;;;14.82;87.95;94189.81;5036689;28;20202;-78
2022/11/05 01:21:53;;;;;;;22.63;16.33;;;;;;;14.82;87.88;94197.56;5035450;28;20191;-82
2022/11/05 01:24:21;;;;;;;19.43;14.97;;;;;;;14.82;88.04;94186.47;5039485;28;20196;-80
2022/11/05 01:26:48;;;;;;;22.37;16.00;;;;;;;14.80;87.87;94179.69;5037244;28;20198;-80
2022/11/05 01:29:15;;;;;;;22.13;15.70;;;;;;;14.80;87.86;94182.25;5049115;28;20188;-76
2022/11/05 01:31:42;;;;;;;24.20;16.33;;;;;;;14.80;88.00;94189.97;5049489;28;20195;-81
2022/11/05 01:34:09;;;;;;;22.67;16.30;;;;;;;14.80;88.02;94189.19;5043963;28;20231;-77
2022/11/05 01:36:36;;;;;;;23.40;16.33;;;;;;;14.74;88.17;94172.69;5046337;28;20202;-79
2022/11/05 01:39:04;;;;;;;18.70;15.33;;;;;;;14.78;88.04;94167.97;5024862;28;20188;-75
2022/11/05 01:41:32;;;;;;;20.23;15.37;;;;;;;14.78;88.20;94170.56;5015720;28;20192;-81
2022/11/05 01:43:59;;;;;;;23.40;16.33;;;;;;;14.76;87.98;94160.41;5017386;28;20188;-75
2022/11/05 01:46:33;;;;;;;18.13;15.67;;;;;;;14.70;88.07;94148.25;5031031;28;20203;-76
2022/11/05 01:49:06;;;;;;;22.87;16.50;;;;;;;14.68;88.14;94141.69;5030588;28;20197;-81
2022/11/05 01:51:33;;;;;;;23.30;16.47;;;;;;;14.73;88.24;94150.50;5029113;28;20223;-80
2022/11/05 01:54:06;;;;;;;25.17;16.87;;;;;;;14.73;88.26;94144.56;5027420;28;20212;-77
2022/11/05 01:56:38;;;;;;;25.83;16.83;;;;;;;14.71;88.14;94149.84;5015295;28;20280;-87
2022/11/05 01:59:09;;;;;;;23.73;16.00;;;;;;;14.70;88.28;94163.72;5013849;28;20574;-81
2022/11/05 02:01:36;;;;;;;21.53;16.00;;;;;;;14.68;88.04;94155.38;5013455;28;20185;-84
2022/11/05 02:04:11;;;;;;;21.40;15.80;;;;;;;14.65;88.09;94139.47;5012615;28;20203;-84
2022/11/05 02:06:44;;;;;;;22.00;16.03;;;;;;;14.66;88.20;94149.59;5012809;28;20744;-78
2022/11/05 02:09:15;;;;;;;21.00;15.13;;;;;;;14.64;88.07;94143.03;5012949;28;20282;-79
2022/11/05 02:11:43;;;;;;;21.43;15.57;;;;;;;14.63;88.18;94146.56;5013142;28;20200;-78
2022/11/05 02:14:10;;;;;;;22.97;15.37;;;;;;;14.59;88.17;94153.03;5013161;28;20224;-79
2022/11/05 02:16:41;;;;;;;23.53;15.80;;;;;;;14.60;87.93;94155.47;5012916;28;20184;-78
2022/11/05 02:19:34;;;;;;;20.13;15.50;;;;;;;14.54;87.92;94145.84;5011333;28;20690;-78
2022/11/05 02:22:42;;;;;;;23.67;15.80;;;;;;;14.55;88.06;94145.69;5012086;28;20192;-77
2022/11/05 02:25:28;;;;;;;25.33;16.00;;;;;;;14.53;87.79;94146.81;4987487;28;20211;-78
2022/11/05 02:28:16;;;;;;;22.67;15.80;;;;;;;14.51;87.71;94144.44;5013396;28;20565;-81
2022/11/05 02:30:51;;;;;;;21.93;16.60;;;;;;;14.48;87.67;94147.34;5025882;28;20610;-79
2022/11/05 02:33:34;;;;;;;19.90;15.20;;;;;;;14.47;87.63;94150.88;5014240;28;20187;-78
2022/11/05 02:36:11;;;;;;;23.60;15.60;;;;;;;14.45;87.83;94142.53;5012014;28;20222;-81
2022/11/05 02:38:42;;;;;;;21.87;16.03;;;;;;;14.40;87.65;94139.69;5012156;28;20204;-82
2022/11/05 02:41:18;;;;;;;21.00;15.40;;;;;;;14.43;87.60;94135.97;5011825;28;20211;-78
2022/11/05 02:43:52;;;;;;;21.83;15.40;;;;;;;14.41;87.55;94137.91;5013104;28;20185;-81
2022/11/05 02:46:30;;;;;;;21.10;15.50;;;;;;;14.39;87.59;94139.84;5012661;28;20192;-79
2022/11/05 02:49:03;;;;;;;20.13;15.80;;;;;;;14.37;87.55;94137.44;5012608;28;20199;-80
2022/11/05 02:51:36;;;;;;;21.80;15.50;;;;;;;14.36;87.52;94137.63;5014315;28;20185;-80
2022/11/05 02:54:09;;;;;;;20.90;16.37;;;;;;;14.35;87.66;94154.84;5012887;28;20444;-80
2022/11/05 02:56:40;;;;;;;19.83;15.07;;;;;;;14.33;87.38;94138.75;5011935;28;20577;-81
2022/11/05 02:59:06;;;;;;;21.37;15.93;;;;;;;14.25;87.50;94129.38;5011552;28;20204;-83
2022/11/05 03:01:37;;;;;;;21.90;15.43;;;;;;;14.27;87.52;94145.41;5012216;28;20199;-76
2022/11/05 03:04:08;;;;;;;22.37;15.33;;;;;;;14.29;87.49;94142.66;5012312;28;20288;-80
2022/11/05 03:07:01;;;;;;;18.70;15.07;;;;;;;14.28;87.40;94157.28;5011229;28;20224;-75
2022/11/05 03:09:47;;;;;;;21.87;15.43;;;;;;;14.26;87.49;94143.03;5012562;28;20188;-75
2022/11/05 03:12:25;;;;;;;19.40;15.07;;;;;;;14.24;87.46;94163.75;5011428;28;20676;-79
2022/11/05 03:15:03;;;;;;;18.97;14.50;;;;;;;14.20;87.40;94153.97;5011311;28;20232;-81
2022/11/05 03:17:40;;;;;;;21.60;14.80;;;;;;;14.20;87.49;94154.78;5010931;28;20199;-82
2022/11/05 03:20:19;;;;;;;20.63;15.93;;;;;;;14.18;87.33;94151.59;5010966;28;20184;-76
2022/11/05 03:22:52;;;;;;;20.03;15.67;;;;;;;14.17;87.38;94138.91;5011072;28;20189;-75
2022/11/05 03:25:24;;;;;;;23.33;15.77;;;;;;;14.17;87.19;94159.50;5011249;28;20287;-77
2022/11/05 03:27:57;;;;;;;21.87;15.03;;;;;;;14.11;87.36;94144.75;5010923;28;20196;-78
2022/11/05 03:30:25;;;;;;;22.43;16.10;;;;;;;14.13;87.37;94150.53;5011009;28;20195;-79
2022/11/05 03:33:00;;;;;;;25.83;15.97;;;;;;;14.14;87.30;94157.25;5011243;28;20211;-75
2022/11/05 03:35:30;;;;;;;23.70;15.00;;;;;;;14.08;87.47;94161.31;5010348;28;20245;-77
2022/11/05 03:38:02;;;;;;;19.43;14.83;;;;;;;14.13;87.45;94168.53;5011193;28;20223;-78
2022/11/05 03:40:33;;;;;;;21.10;15.17;;;;;;;14.14;87.41;94177.81;5010551;28;20192;-79
2022/11/05 03:43:04;;;;;;;22.23;15.90;;;;;;;14.13;87.32;94176.22;5010413;28;20188;-79
2022/11/05 03:45:35;;;;;;;19.53;14.63;;;;;;;14.13;87.15;94184.75;5010975;28;20579;-77
2022/11/05 03:48:06;;;;;;;17.90;14.93;;;;;;;14.13;87.49;94187.31;5010934;28;20192;-76
2022/11/05 03:50:40;;;;;;;18.00;15.27;;;;;;;14.12;87.56;94180.59;5010685;28;20207;-82
2022/11/05 03:53:22;;;;;;;21.80;15.43;;;;;;;14.14;87.47;94188.13;5010686;28;20192;-81
2022/11/05 03:55:55;;;;;;;20.47;15.40;;;;;;;14.10;87.25;94186.84;4991010;28;20213;-84
2022/11/05 03:58:23;;;;;;;17.87;14.17;;;;;;;14.06;87.32;94182.03;4991417;28;20207;-82
2022/11/05 04:00:51;;;;;;;20.13;14.80;;;;;;;14.14;87.47;94188.13;4990867;28;20189;-81
2022/11/05 04:03:19;;;;;;;20.77;15.00;;;;;;;14.13;87.56;94194.25;5000959;28;20196;-79
2022/11/05 04:13:22;;;;;;;18.63;14.40;;;;;;;14.13;87.56;94194.25;5010251;28;20790;-77
2022/11/05 04:14:02;;;;;;;21.20;15.50;;;;;;;14.09;87.78;94191.19;5010243;28;20246;-78
2022/11/05 04:24:07;;;;;;;19.43;15.17;;;;;;;13.98;87.81;94168.44;5014642;28;20690;-75
2022/11/05 04:24:48;;;;;;;22.60;14.90;;;;;;;14.09;88.08;94191.19;5030025;28;20190;-75
2022/11/05 04:27:14;;;;;;;19.50;15.33;;;;;;;14.09;88.04;94191.19;5022400;28;20612;-76
2022/11/05 04:32:25;;;;;;;19.97;14.40;;;;;;;14.09;88.07;94198.91;5023693;28;20199;-77
2022/11/05 04:34:54;;;;;;;23.53;15.43;;;;;;;14.02;88.19;94208.28;5022800;28;20232;-83
2022/11/05 04:37:20;;;;;;;20.37;14.83;;;;;;;14.08;88.03;94215.31;5023995;28;20698;-77
2022/11/05 04:39:47;;;;;;;21.37;14.93;;;;;;;14.08;88.28;94210.19;5021332;28;20280;-77
2022/11/05 04:42:14;;;;;;;21.63;15.50;;;;;;;14.06;88.11;94214.69;5021263;28;20198;-75
2022/11/05 04:44:41;;;;;;;21.63;14.87;;;;;;;14.06;88.46;94215.47;5021648;28;20192;-75
2022/11/05 04:47:08;;;;;;;24.17;14.83;;;;;;;14.08;88.34;94217.09;5020489;28;20185;-76
2022/11/05 04:49:34;;;;;;;22.33;14.93;;;;;;;14.06;88.42;94219.81;5017282;28;20567;-78
2022/11/05 04:52:03;;;;;;;24.03;15.67;;;;;;;14.04;88.27;94216.63;5018156;28;20579;-78
2022/11/05 04:54:30;;;;;;;21.20;14.87;;;;;;;14.06;88.29;94212.09;5017822;28;20220;-76
2022/11/05 04:56:56;;;;;;;22.03;14.87;;;;;;;14.08;88.39;94217.09;5017524;28;20624;-76
2022/11/05 04:59:23;;;;;;;16.93;13.47;;;;;;;13.99;88.36;94198.34;5016859;28;20200;-77
2022/11/05 05:01:52;;;;;;;22.37;14.43;;;;;;;13.99;88.56;94194.00;5017274;28;20196;-76
2022/11/05 05:04:19;;;;;;;21.57;14.53;;;;;;;14.06;88.42;94205.19;5014409;28;20279;-77
2022/11/05 05:06:46;;;;;;;19.13;14.27;;;;;;;14.06;88.59;94204.38;5014155;28;20232;-76
2022/11/05 05:09:14;;;;;;;19.87;13.43;;;;;;;14.09;88.38;94222.06;5014147;28;20193;-77
2022/11/05 05:11:41;;;;;;;22.10;14.57;;;;;;;14.06;88.20;94219.81;5013888;28;20790;-75
2022/11/05 05:14:08;;;;;;;21.57;15.00;;;;;;;14.09;88.41;94228.97;5018425;28;20250;-76
2022/11/05 05:16:35;;;;;;;22.57;14.40;;;;;;;13.96;88.25;94201.25;5018103;28;20227;-76
2022/11/05 05:19:02;;;;;;;23.33;15.10;;;;;;;14.07;88.39;94218.84;5017761;28;20192;-76
2022/11/05 05:24:11;;;;;;;22.33;14.77;;;;;;;14.12;88.46;94226.03;5014838;28;20192;-76
2022/11/05 05:26:42;;;;;;;18.47;14.03;;;;;;;14.14;88.51;94245.47;5017435;28;20219;-78
2022/11/05 05:29:10;;;;;;;21.63;14.50;;;;;;;14.15;88.38;94238.56;5015101;28;20200;-77
2022/11/05 05:31:37;;;;;;;19.10;14.07;;;;;;;14.17;88.52;94242.56;5015508;28;20185;-77
2022/11/05 05:34:04;;;;;;;17.33;12.90;;;;;;;14.23;88.38;94253.94;5016734;28;20188;-77
2022/11/05 05:36:32;;;;;;;19.27;14.20;;;;;;;14.29;88.34;94260.97;5015747;28;20228;-77
2022/11/05 05:38:59;;;;;;;19.00;14.93;;;;;;;14.35;88.40;94260.31;5016544;28;20543;-78
2022/11/05 05:41:25;;;;;;;16.97;14.00;;;;;;;14.36;88.40;94256.75;5012970;28;20215;-77
2022/11/05 05:43:54;;;;;;;20.27;14.17;;;;;;;14.48;88.18;94270.03;5015089;28;20296;-78
2022/11/05 05:46:21;;;;;;;18.10;14.13;;;;;;;14.48;88.19;94260.56;5013143;28;20197;-79
2022/11/05 05:48:49;;;;;;;19.97;13.67;;;;;;;14.63;88.45;94277.81;5013062;28;20191;-78
2022/11/05 05:51:16;;;;;;;21.13;14.70;;;;;;;14.71;88.28;94270.81;5013123;28;20192;-79
2022/11/05 05:53:44;;;;;;;18.77;14.07;;;;;;;14.80;88.46;94269.78;5013091;28;20192;-78
2022/11/05 05:56:13;;;;;;;21.03;14.13;;;;;;;14.79;88.20;94257.09;5013538;28;20212;-77
2022/11/05 05:58:41;;;;;;;20.53;13.07;;;;;;;14.84;88.21;94246.28;5012849;28;20227;-79
2022/11/05 06:01:13;;;;;;;21.60;14.63;;;;;;;15.12;88.29;94269.69;5012255;28;20214;-79
2022/11/05 06:03:40;;;;;;;16.10;13.67;;;;;;;15.19;88.04;94266.22;5012980;28;20188;-80
2022/11/05 06:06:09;;;;;;;19.07;14.20;;;;;;;15.38;87.48;94271.84;4999481;28;20239;-80
2022/11/05 06:08:37;;;;;;;15.57;12.63;;;;;;;15.48;87.14;94267.22;4993583;28;20671;-84
2022/11/05 06:11:04;;;;;;;17.80;13.83;;;;;;;15.63;86.93;94264.63;4993808;28;20193;-88
2022/11/05 06:13:31;;;;;;;17.13;13.80;;;;;;;15.67;86.89;94250.44;5001065;28;20196;-87
2022/11/05 06:16:04;;;;;;;18.50;13.13;;;;;;;15.80;87.25;94253.97;5017197;28;20235;-92
2022/11/05 06:18:51;;;;;;;19.83;14.43;;;;;;;16.04;87.29;94267.53;5004816;28;20216;-93
2022/11/05 06:21:19;;;;;;;19.17;15.23;;;;;;;16.07;87.14;94258.66;5031426;28;20220;-86
2022/11/05 06:23:52;;;;;;;18.97;14.43;;;;;;;16.35;87.04;94276.78;5007858;28;20203;-88
2022/11/05 06:26:19;;;;;;;18.30;15.30;;;;;;;16.50;87.10;94270.59;5019728;28;20200;-88
2022/11/05 06:28:47;;;;;;;19.90;13.47;;;;;;;16.49;87.33;94242.38;5024395;28;20203;-85
2022/11/05 06:31:15;;;;;;;21.57;15.80;;;;;;;16.80;87.60;94268.72;5028853;28;20184;-85
2022/11/05 06:33:42;;;;;;;17.13;14.20;;;;;;;16.93;87.66;94264.66;5026736;28;20196;-86
2022/11/05 06:36:17;;;;;;;19.77;14.60;;;;;;;16.73;88.50;94208.47;5026732;28;20235;-89
2022/11/05 06:38:46;;;;;;;20.53;15.37;;;;;;;17.13;88.56;94262.19;5028479;28;20212;-87
2022/11/05 06:41:16;;;;;;;22.50;14.87;;;;;;;17.11;88.22;94233.16;5030561;28;20219;-90
2022/11/05 06:44:31;;;;;;;19.67;15.67;;;;;;;17.41;87.91;94268.16;5038033;28;20180;-92
2022/11/05 06:46:59;;;;;;;23.10;16.27;;;;;;;17.52;87.84;94265.00;5030679;28;20199;-89
2022/11/05 06:49:27;;;;;;;21.83;15.87;;;;;;;17.38;88.02;94216.81;5025455;28;20207;-84
2022/11/05 06:51:55;;;;;;;21.93;15.13;;;;;;;17.82;88.08;94248.47;5024724;28;20199;-86
2022/11/05 06:54:23;;;;;;;17.10;14.37;;;;;;;17.89;87.58;94221.66;5019335;28;20528;-92
2022/11/05 06:56:49;;;;;;;20.07;15.33;;;;;;;18.14;87.50;94224.53;5015466;28;20220;-87
2022/11/05 06:59:16;;;;;;;22.40;15.27;;;;;;;18.44;87.37;94224.97;5016144;28;20247;-85
2022/11/05 07:01:43;;;;;;;18.77;14.43;;;;;;;18.78;87.27;94223.22;5013676;28;20192;-86
2022/11/05 07:04:11;;;;;;;19.87;15.63;;;;;;;19.38;87.36;94246.47;5013924;28;20188;-90
2022/11/05 07:06:38;;;;;;;17.23;14.63;;;;;;;19.82;87.58;94239.78;5014598;28;20224;-88
2022/11/05 07:09:07;;;;;;;19.13;14.43;;;;;;;20.27;87.58;94240.59;5029075;28;20222;-87
2022/11/05 07:11:34;;;;;;;19.00;14.50;;;;;;;20.51;87.15;94228.69;5019741;28;20189;-87
2022/11/05 07:14:02;;;;;;;21.33;13.03;;;;;;;20.95;86.52;94240.75;5015136;28;20197;-91
2022/11/05 07:16:29;;;;;;;22.97;16.23;;;;;;;21.01;85.95;94193.09;5016381;28;20220;-89
2022/11/05 07:18:56;;;;;;;19.38;13.90;;;;;;;21.49;84.91;94236.66;5010953;28;20664;-88
2022/11/05 07:21:23;;;;;;;19.17;14.30;;;;;;;21.61;84.72;94225.56;5006190;28;20203;-88
2022/11/05 07:23:50;;;;;;;19.70;14.18;;;;;;;22.04;83.66;94249.69;5009558;28;20204;-90
2022/11/05 07:26:19;;;;;;;18.45;13.85;;;;;;;22.05;82.75;94186.16;5012127;28;20182;-84
2022/11/05 07:28:45;;;;;;;18.08;12.93;;;;;;;22.59;82.02;94225.31;5011619;28;20212;-87
2022/11/05 07:31:13;;;;;;;12.15;8.93;;;;;;;22.82;80.27;94232.38;5011940;28;20196;-87
2022/11/05 07:33:41;;;;;;;10.00;8.55;;;;;;;23.14;78.48;94247.75;5017353;28;20283;-88
2022/11/05 07:36:09;;;;;;;15.13;8.70;;;;;;;23.29;76.98;94222.81;5012662;28;20217;-83
2022/11/05 07:38:35;;;;;;;19.85;9.50;;;;;;;23.62;75.59;94239.69;5010378;28;20207;-82
2022/11/05 07:41:04;;;;;;;13.90;10.07;;;;;;;23.88;73.74;94229.81;5011862;28;20189;-84
2022/11/05 07:43:32;;;;;;;12.38;8.77;;;;;;;24.05;72.61;94220.22;5007723;28;20193;-84
2022/11/05 07:45:59;;;;;;;14.93;10.88;;;;;;;24.18;71.89;94222.53;5013259;28;20203;-82
2022/11/05 07:48:26;;;;;;;15.07;9.95;;;;;;;24.20;70.82;94214.47;5008240;28;20214;-82
2022/11/05 07:50:52;;;;;;;12.35;10.48;;;;;;;24.15;70.00;94204.72;5007907;28;20184;-83
2022/11/05 07:53:20;;;;;;;14.05;9.95;;;;;;;24.28;69.03;94225.34;5007094;28;20623;-81
2022/11/05 07:55:46;;;;;;;17.77;11.48;;;;;;;24.28;68.23;94220.09;5007048;28;20266;-80
2022/11/05 07:58:13;;;;;;;13.88;10.85;;;;;;;24.31;67.09;94212.81;5007902;28;20207;-84
2022/11/05 08:00:42;;;;;;;20.20;11.65;;;;;;;24.29;66.08;94213.06;5007503;28;20286;-81
2022/11/05 08:03:12;;;;;;;14.93;11.75;;;;;;;24.38;64.92;94219.50;5008522;28;20203;-81
2022/11/05 08:05:43;;;;;;;18.60;11.23;;;;;;;24.74;63.37;94194.78;5005966;28;20264;-82
2022/11/05 08:08:13;;;;;;;15.50;12.10;;;;;;;25.14;61.25;94185.97;5007698;28;20198;-82
2022/11/05 08:10:41;;;;;;;17.95;11.57;;;;;;;25.21;60.51;94215.38;5007841;28;20663;-82
2022/11/05 08:13:09;;;;;;;17.15;11.60;;;;;;;24.97;60.18;94206.09;5007093;28;20219;-81
2022/11/05 08:15:36;;;;;;;16.17;12.13;;;;;;;24.72;60.04;94207.28;5021200;28;20209;-86
2022/11/05 08:18:06;;;;;;;16.65;11.50;;;;;;;24.80;59.46;94213.94;5015766;28;20188;-81
2022/11/05 08:20:34;;;;;;;14.65;11.10;;;;;;;25.08;58.96;94192.16;5015791;28;20195;-81
2022/11/05 08:23:03;;;;;;;14.65;10.77;;;;;;;25.19;58.67;94206.97;5009925;28;20196;-83
2022/11/05 08:25:30;;;;;;;14.75;12.00;;;;;;;24.82;58.43;94184.94;5010787;28;20184;-79
2022/11/05 08:27:58;;;;;;;17.35;12.23;;;;;;;24.87;58.48;94214.59;5015758;28;20199;-78
2022/11/05 08:30:26;;;;;;;15.32;11.13;;;;;;;24.72;59.12;94215.13;5014265;28;20189;-78
2022/11/05 08:32:57;;;;;;;13.70;11.45;;;;;;;24.63;59.32;94216.53;5018462;28;20211;-79
2022/11/05 08:35:26;;;;;;;19.73;11.80;;;;;;;24.39;59.96;94194.16;5017017;28;20195;-81
2022/11/05 08:37:57;;;;;;;16.50;12.65;;;;;;;24.39;59.78;94210.63;5017227;28;20192;-86
2022/11/05 08:40:24;;;;;;;30.45;12.63;;;;;;;24.26;60.78;94210.91;5028717;28;20196;-81
2022/11/05 08:42:51;;;;;;;19.38;11.80;;;;;;;24.14;61.70;94210.19;5024466;28;20187;-83
2022/11/05 08:45:18;;;;;;;17.13;11.50;;;;;;;23.93;62.55;94204.56;5026294;28;20191;-86
2022/11/05 08:47:45;;;;;;;14.93;11.75;;;;;;;23.89;63.86;94211.28;5021438;28;20189;-85
2022/11/05 08:50:12;;;;;;;16.50;11.13;;;;;;;23.69;64.34;94197.81;5023619;28;20215;-86
2022/11/05 08:52:43;;;;;;;20.65;12.30;;;;;;;23.68;65.01;94206.69;5026133;28;20169;-87
2022/11/05 08:55:13;;;;;;;21.08;13.55;;;;;;;23.52;65.31;94190.66;5028990;28;20188;-90
2022/11/05 08:57:40;;;;;;;17.05;12.45;;;;;;;23.44;65.80;94201.44;5028840;28;20227;-85
2022/11/05 09:00:08;;;;;;;17.33;12.40;;;;;;;23.39;66.50;94201.34;5023894;28;20204;-87
2022/11/05 09:02:35;;;;;;;19.42;12.52;;;;;;;23.14;66.78;94172.91;5011174;28;20568;-89
2022/11/05 09:05:02;;;;;;;16.13;12.40;;;;;;;23.26;67.37;94199.78;5013903;28;20181;-84
2022/11/05 09:07:35;;;;;;;16.17;12.30;;;;;;;23.23;67.68;94196.84;5019684;28;20227;-93
2022/11/05 09:10:03;;;;;;;20.38;12.38;;;;;;;23.18;68.63;94199.31;5016933;28;20200;-89
2022/11/05 09:12:30;;;;;;;14.90;12.13;;;;;;;23.10;69.09;94192.66;5016177;28;20201;-86
2022/11/05 09:14:57;;;;;;;16.85;11.68;;;;;;;23.10;68.88;94192.66;5013024;28;20195;-88
2022/11/05 09:17:24;;;;;;;16.42;11.25;;;;;;;23.03;68.17;94178.94;5012425;28;20220;-85
2022/11/05 09:19:51;;;;;;;21.73;11.45;;;;;;;23.12;67.92;94189.81;5012300;28;20185;-89
2022/11/05 09:22:18;;;;;;;16.63;11.40;;;;;;;23.17;67.36;94197.75;5012422;28;20208;-85
2022/11/05 09:24:45;;;;;;;16.00;12.15;;;;;;;23.02;66.37;94172.13;5013698;28;20188;-86
2022/11/05 09:27:14;;;;;;;17.55;10.95;;;;;;;23.09;66.11;94164.97;5012459;28;20189;-85
2022/11/05 09:29:42;;;;;;;17.63;11.68;;;;;;;23.27;65.95;94185.72;5011674;28;20204;-84
2022/11/05 09:32:09;;;;;;;14.48;11.43;;;;;;;23.32;65.77;94181.63;5012319;28;20204;-88
2022/11/05 09:34:36;;;;;;;18.05;11.27;;;;;;;23.35;65.57;94187.16;5011699;28;20203;-83
2022/11/05 09:37:03;;;;;;;19.13;12.10;;;;;;;23.36;64.93;94177.53;5010977;28;20230;-85
2022/11/05 09:39:30;;;;;;;17.90;11.68;;;;;;;23.33;64.95;94181.41;5011361;28;20188;-83
2022/11/05 09:42:04;;;;;;;16.15;11.10;;;;;;;23.39;64.77;94184.91;5011647;28;20647;-82
2022/11/05 09:44:40;;;;;;;19.67;11.02;;;;;;;23.41;64.95;94178.44;5011734;28;20204;-87
2022/11/05 09:47:13;;;;;;;21.60;11.02;;;;;;;23.23;64.76;94148.06;5011548;28;20694;-81
2022/11/05 09:49:45;;;;;;;17.08;10.90;;;;;;;23.47;64.81;94182.72;5010064;28;20188;-81
2022/11/05 09:52:16;;;;;;;21.17;10.77;;;;;;;23.51;65.55;94180.47;5011147;28;20192;-80
2022/11/05 09:54:44;;;;;;;29.45;11.32;;;;;;;23.40;65.92;94155.16;5024489;28;20189;-83
2022/11/05 09:57:16;;;;;;;26.45;11.32;;;;;;;23.56;65.21;94177.94;5030885;28;20188;-82
2022/11/05 09:59:48;;;;;;;23.38;11.23;;;;;;;23.59;65.75;94176.72;5019963;28;20197;-86
2022/11/05 10:02:20;;;;;;;20.48;10.57;;;;;;;23.56;65.62;94170.13;5012404;28;20647;-85
2022/11/05 10:04:50;;;;;;;14.90;10.32;;;;;;;23.65;65.86;94170.56;5011557;28;20200;-89
2022/11/05 10:07:21;;;;;;;14.02;9.93;;;;;;;23.69;65.83;94171.69;5012519;28;20246;-83
2022/11/05 10:09:51;;;;;;;18.20;10.60;;;;;;;23.74;66.40;94171.78;5010655;28;20188;-82
2022/11/05 10:12:24;;;;;;;16.17;10.27;;;;;;;23.78;66.46;94168.50;5015285;28;20204;-81
2022/11/05 10:15:09;;;;;;;17.52;10.60;;;;;;;23.80;66.14;94155.22;5012345;28;20215;-82
2022/11/05 10:17:39;;;;;;;15.70;11.13;;;;;;;23.73;66.46;94146.72;5012853;28;20216;-86
2022/11/05 10:20:15;;;;;;;16.88;10.60;;;;;;;23.68;66.68;94144.03;5014232;28;20273;-88
2022/11/05 10:22:42;;;;;;;15.25;9.57;;;;;;;23.80;66.98;94157.03;5013115;28;20184;-84
2022/11/05 10:25:18;;;;;;;19.65;10.35;;;;;;;23.64;67.18;94135.81;5013945;28;20725;-85
2022/11/05 10:27:50;;;;;;;17.67;10.57;;;;;;;23.76;66.92;94154.09;5015244;28;20195;-86
2022/11/05 10:30:18;;;;;;;15.52;9.80;;;;;;;23.78;67.08;94158.03;5013301;28;20227;-85
2022/11/05 10:32:47;;;;;;;15.57;9.77;;;;;;;23.77;67.25;94153.84;5013063;28;20203;-86
2022/11/05 10:35:17;;;;;;;15.65;9.40;;;;;;;23.61;66.72;94128.44;5013559;28;20655;-85
2022/11/05 10:37:46;;;;;;;17.05;10.40;;;;;;;23.58;66.71;94128.13;5014273;28;20230;-86
2022/11/05 10:40:22;;;;;;;14.13;9.27;;;;;;;23.74;66.88;94151.69;5013003;28;20221;-86
2022/11/05 10:42:57;;;;;;;14.13;9.45;;;;;;;23.43;67.13;94108.53;5012829;28;20670;-86
2022/11/05 10:45:35;;;;;;;14.85;9.90;;;;;;;23.68;67.38;94146.63;5014174;28;20280;-84
2022/11/05 10:48:21;;;;;;;17.35;10.07;;;;;;;23.56;67.25;94122.34;5016987;28;20204;-86
2022/11/05 10:50:48;;;;;;;16.85;10.55;;;;;;;23.75;67.69;94144.69;5021324;28;20196;-85
2022/11/05 10:53:19;;;;;;;16.15;10.05;;;;;;;23.76;67.41;94152.28;5030414;28;20184;-84
2022/11/05 10:55:48;;;;;;;11.98;9.70;;;;;;;23.73;67.22;94142.28;5029591;28;20184;-86
2022/11/05 10:58:21;;;;;;;16.00;9.88;;;;;;;23.79;67.59;94145.78;5024975;28;20212;-85
2022/11/05 11:01:04;;;;;;;13.90;10.50;;;;;;;23.62;67.34;94116.19;5015916;28;20660;-85
2022/11/05 11:03:38;;;;;;;18.02;10.45;;;;;;;23.80;67.30;94134.31;5012483;28;20199;-84
2022/11/05 11:06:19;;;;;;;16.05;10.55;;;;;;;23.86;66.77;94135.19;5018691;28;20212;-85
2022/11/05 11:08:48;;;;;;;11.00;9.52;;;;;;;23.86;65.85;94130.78;5021150;28;20222;-86
2022/11/05 11:11:27;;;;;;;17.25;10.30;;;;;;;23.61;65.76;94091.91;5015377;28;20225;-89
2022/11/05 11:14:01;;;;;;;17.35;10.85;;;;;;;23.65;66.22;94100.88;5009678;28;20193;-87
2022/11/05 11:16:35;;;;;;;19.38;10.30;;;;;;;23.82;65.88;94118.41;5016785;28;20279;-85
2022/11/05 11:19:02;;;;;;;14.40;9.70;;;;;;;23.78;65.39;94129.31;5022579;28;20289;-87
2022/11/05 11:21:30;;;;;;;15.05;9.85;;;;;;;23.76;65.27;94131.38;5016722;28;20204;-88
2022/11/05 11:23:59;;;;;;;14.15;10.38;;;;;;;23.54;65.24;94101.69;5029280;28;20192;-84
2022/11/05 11:26:29;;;;;;;16.67;11.10;;;;;;;23.67;65.01;94127.56;5031062;28;20264;-83
2022/11/05 11:28:59;;;;;;;13.90;10.00;;;;;;;23.63;65.08;94121.19;5025958;28;20196;-86
2022/11/05 11:31:30;;;;;;;13.07;10.57;;;;;;;23.57;65.35;94116.09;5020074;28;20267;-86
2022/11/05 11:34:02;;;;;;;14.25;10.77;;;;;;;23.50;65.62;94117.03;5020310;28;20223;-84
2022/11/05 11:36:35;;;;;;;17.98;10.02;;;;;;;23.56;65.62;94119.72;5023404;28;20277;-88
2022/11/05 11:39:05;;;;;;;17.02;9.90;;;;;;;23.52;65.23;94116.78;5024292;28;20196;-86
2022/11/05 11:41:35;;;;;;;12.90;9.82;;;;;;;23.41;65.72;94109.81;5022318;28;20185;-86
2022/11/05 11:44:08;;;;;;;14.38;10.13;;;;;;;23.37;65.66;94103.47;5023979;28;20200;-85
2022/11/05 11:46:37;;;;;;;14.70;9.68;;;;;;;23.43;65.58;94126.00;5028967;28;20215;-86
2022/11/05 11:49:08;;;;;;;12.15;10.23;;;;;;;23.40;65.85;94121.25;5036556;28;20207;-86
2022/11/05 11:51:39;;;;;;;12.63;9.57;;;;;;;23.28;65.94;94105.63;5034542;28;20181;-85
2022/11/05 11:54:18;;;;;;;18.63;10.13;;;;;;;23.33;66.16;94115.38;5033757;28;20197;-83
2022/11/05 11:56:46;;;;;;;17.73;11.10;;;;;;;23.21;66.33;94097.13;5030369;28;20288;-85
2022/11/05 11:59:28;;;;;;;14.73;9.57;;;;;;;23.25;66.54;94098.25;5021973;28;20195;-87
2022/11/05 12:02:28;;;;;;;13.55;10.45;;;;;;;23.21;66.40;94105.75;5004413;28;20627;-87
2022/11/05 12:05:20;;;;;;;15.55;9.85;;;;;;;22.83;66.51;94061.88;5018574;28;20196;-88
2022/11/05 12:07:51;;;;;;;12.85;9.43;;;;;;;23.02;66.82;94092.06;4958074;29;20671;-90
2022/11/05 12:10:53;;;;;;;17.17;10.27;;;;;;;22.99;66.45;94094.34;4955487;29;20386;-87
2022/11/05 12:13:47;;;;;;;18.38;10.15;;;;;;;22.97;66.51;94099.78;4956260;29;20688;-90
2022/11/05 12:16:25;;;;;;;13.00;9.88;;;;;;;22.88;66.46;94095.88;4954907;29;20204;-90